createdAt,value
2018-05-05T00:01:06.836Z,11.27
2018-05-05T00:06:02.639Z,11.30
2018-05-05T00:10:58.458Z,11.18
2018-05-05T00:15:59.203Z,11.14
2018-05-05T00:20:55.171Z,11.05
2018-05-05T00:25:51.163Z,11.00
2018-05-05T00:30:50.835Z,11.02
2018-05-05T00:35:45.703Z,10.92
2018-05-05T00:40:41.413Z,10.87
2018-05-05T00:45:37.108Z,10.86
2018-05-05T00:50:37.710Z,10.71
2018-05-05T00:55:32.402Z,10.61
2018-05-05T01:00:29.288Z,10.53
2018-05-05T01:05:25.664Z,10.59
2018-05-05T01:10:21.603Z,10.35
2018-05-05T01:15:17.326Z,10.42
2018-05-05T01:20:13.150Z,10.33
2018-05-05T01:25:08.809Z,10.35
2018-05-05T01:30:06.669Z,10.37
2018-05-05T01:35:03.316Z,10.26
2018-05-05T01:39:58.649Z,10.37
2018-05-05T01:44:54.390Z,10.26
2018-05-05T01:49:49.793Z,10.33
2018-05-05T01:54:45.165Z,10.26
2018-05-05T01:59:46.259Z,10.16
2018-05-05T02:04:41.293Z,10.09
2018-05-05T02:09:40.798Z,10.04
2018-05-05T02:14:35.620Z,10.04
2018-05-05T02:19:35.636Z," 9.99"
2018-05-05T02:24:30.687Z," 9.99"
2018-05-05T02:29:26.354Z," 9.89"
2018-05-05T02:34:21.998Z," 9.89"
2018-05-05T02:39:18.774Z," 9.84"
2018-05-05T02:44:14.355Z," 9.76"
2018-05-05T02:49:09.956Z," 9.80"
2018-05-05T02:54:05.677Z," 9.68"
2018-05-05T02:59:01.770Z," 9.72"
2018-05-05T03:03:57.551Z," 9.54"
2018-05-05T03:08:53.204Z," 9.56"
2018-05-05T03:13:49.028Z," 9.55"
2018-05-05T03:18:44.637Z," 9.44"
2018-05-05T03:23:40.295Z," 9.36"
2018-05-05T03:28:40.226Z," 9.32"
2018-05-05T03:33:35.056Z," 9.29"
2018-05-05T03:38:30.976Z," 9.14"
2018-05-05T03:43:26.690Z," 9.18"
2018-05-05T03:48:23.340Z," 9.14"
2018-05-05T03:53:18.729Z," 9.03"
2018-05-05T03:58:15.426Z," 9.04"
2018-05-05T04:03:15.676Z," 9.02"
2018-05-05T04:08:10.291Z," 8.99"
2018-05-05T04:13:09.869Z," 8.91"
2018-05-05T04:18:05.695Z," 8.97"
2018-05-05T04:23:05.258Z," 8.91"
2018-05-05T04:27:59.964Z," 8.99"
2018-05-05T04:32:57.224Z," 9.16"
2018-05-05T04:37:56.513Z," 9.54"
2018-05-05T04:42:55.695Z," 9.69"
2018-05-05T04:47:55.998Z," 9.94"
2018-05-05T04:52:50.842Z,10.07
2018-05-05T04:57:46.553Z,10.17
2018-05-05T05:02:42.563Z,10.38
2018-05-05T05:07:38.912Z,10.48
2018-05-05T05:12:35.567Z,10.51
2018-05-05T05:17:36.189Z,10.57
2018-05-05T05:22:34.934Z,10.86
2018-05-05T05:27:29.961Z,11.00
2018-05-05T05:32:25.563Z,11.10
2018-05-05T05:37:21.360Z,11.23
2018-05-05T05:42:21.053Z,11.32
2018-05-05T05:47:21.239Z,11.44
2018-05-05T05:52:15.888Z,11.57
2018-05-05T05:57:11.833Z,11.75
2018-05-05T06:02:07.888Z,11.94
2018-05-05T06:07:03.813Z,12.07
2018-05-05T06:12:01.014Z,12.21
2018-05-05T06:16:56.505Z,12.39
2018-05-05T06:21:53.074Z,12.55
2018-05-05T06:26:52.904Z,12.72
2018-05-05T06:31:51.961Z,12.67
2018-05-05T06:36:47.657Z,12.90
2018-05-05T06:41:43.556Z,13.08
2018-05-05T06:46:44.460Z,13.23
2018-05-05T06:51:39.838Z,13.42
2018-05-05T06:56:36.607Z,13.70
2018-05-05T07:01:36.150Z,14.05
2018-05-05T07:06:35.780Z,13.99
2018-05-05T07:11:30.933Z,14.41
2018-05-05T07:16:27.855Z,14.44
2018-05-05T07:21:23.333Z,14.51
2018-05-05T07:26:19.550Z,14.58
2018-05-05T07:31:20.567Z,14.96
2018-05-05T07:36:15.912Z,15.14
2018-05-05T07:41:13.028Z,15.68
2018-05-05T07:46:15.281Z,16.87
2018-05-05T07:51:16.538Z,16.91
2018-05-05T07:56:13.214Z,17.56
2018-05-05T08:01:14.293Z,18.31
2018-05-05T08:06:11.313Z,18.81
2018-05-05T08:11:07.964Z,20.67
2018-05-05T08:16:06.062Z,18.65
2018-05-05T08:21:01.455Z,19.34
2018-05-05T08:25:57.847Z,19.47
2018-05-05T08:30:53.926Z,20.03
2018-05-05T08:35:51.651Z,21.48
2018-05-05T08:40:51.747Z,20.29
2018-05-05T08:45:46.440Z,19.82
2018-05-05T08:50:40.346Z,19.67
2018-05-05T08:55:36.354Z,18.89
2018-05-05T09:00:32.259Z,19.04
2018-05-05T09:05:27.307Z,19.58
2018-05-05T09:10:26.721Z,19.19
2018-05-05T09:15:22.251Z,20.24
2018-05-05T09:20:19.630Z,20.18
2018-05-05T09:25:19.014Z,21.96
2018-05-05T09:30:15.508Z,20.99
2018-05-05T09:35:15.213Z,20.56
2018-05-05T09:40:15.203Z,19.85
2018-05-05T09:45:10.810Z,20.84
2018-05-05T09:50:07.660Z,19.70
2018-05-05T09:55:07.549Z,20.77
2018-05-05T10:00:03.145Z,20.74
2018-05-05T10:05:03.814Z,20.55
2018-05-05T10:10:03.218Z,20.60
2018-05-05T10:14:58.427Z,21.40
2018-05-05T10:19:55.243Z,23.12
2018-05-05T10:24:57.229Z,23.32
2018-05-05T10:29:52.931Z,23.84
2018-05-05T10:34:49.507Z,21.51
2018-05-05T10:39:46.609Z,23.23
2018-05-05T10:44:44.070Z,23.17
2018-05-05T10:49:41.433Z,23.50
2018-05-05T10:54:37.844Z,23.05
2018-05-05T10:59:34.161Z,24.42
2018-05-05T11:04:30.871Z,24.45
2018-05-05T11:09:28.384Z,23.28
2018-05-05T11:14:24.381Z,25.07
2018-05-05T11:19:21.356Z,24.33
2018-05-05T11:24:21.523Z,23.12
2018-05-05T11:29:16.634Z,24.23
2018-05-05T11:34:13.096Z,25.04
2018-05-05T11:39:09.938Z,24.40
2018-05-05T11:44:06.262Z,24.85
2018-05-05T11:49:02.586Z,25.31
2018-05-05T11:53:59.519Z,25.53
2018-05-05T11:58:55.641Z,24.33
2018-05-05T12:03:52.149Z,24.05
2018-05-05T12:08:52.364Z,24.29
2018-05-05T12:13:48.244Z,25.32
2018-05-05T12:18:44.139Z,24.63
2018-05-05T12:23:43.965Z,25.36
2018-05-05T12:28:38.895Z,24.29
2018-05-05T12:33:35.548Z,24.29
2018-05-05T12:38:35.290Z,22.17
2018-05-05T12:43:25.440Z,21.46
2018-05-05T12:48:22.261Z,22.36
2018-05-05T12:53:16.815Z,24.01
2018-05-05T12:58:15.865Z,24.98
2018-05-05T13:03:17.127Z,24.03
2018-05-05T13:08:12.360Z,23.23
2018-05-05T13:13:11.939Z,23.91
2018-05-05T13:18:11.168Z,25.53
2018-05-05T13:23:07.708Z,26.16
2018-05-05T13:28:07.408Z,24.76
2018-05-05T13:33:03.018Z,23.31
2018-05-05T13:38:01.153Z,22.78
2018-05-05T13:42:55.859Z,22.20
2018-05-05T13:47:50.276Z,22.08
2018-05-05T13:52:45.328Z,21.64
2018-05-05T13:57:40.804Z,21.76
2018-05-05T14:02:36.314Z,21.45
2018-05-05T14:07:36.910Z,21.61
2018-05-05T14:12:36.783Z,21.69
2018-05-05T14:17:36.286Z,21.67
2018-05-05T14:22:36.230Z,21.82
2018-05-05T14:27:31.099Z,21.77
2018-05-05T14:32:26.927Z,21.75
2018-05-05T14:37:22.765Z,21.45
2018-05-05T14:42:18.501Z,21.21
2018-05-05T14:47:14.158Z,21.36
2018-05-05T14:52:11.052Z,21.32
2018-05-05T14:57:07.622Z,21.18
2018-05-05T15:02:03.215Z,21.43
2018-05-05T15:06:59.195Z,21.57
2018-05-05T15:11:55.262Z,21.42
2018-05-05T15:16:55.021Z,21.45
2018-05-05T15:21:49.992Z,21.55
2018-05-05T15:26:45.742Z,21.54
2018-05-05T15:31:45.815Z,21.54
2018-05-05T15:36:40.793Z,21.25
2018-05-05T15:41:36.650Z,21.24
2018-05-05T15:46:32.567Z,21.29
2018-05-05T15:51:32.415Z,21.37
2018-05-05T15:56:28.587Z,21.32
2018-05-05T16:01:25.336Z,21.29
2018-05-05T16:06:24.434Z,21.29
2018-05-05T16:11:19.583Z,21.33
2018-05-05T16:16:16.544Z,21.42
2018-05-05T16:21:11.943Z,21.33
2018-05-05T16:26:09.183Z,21.36
2018-05-05T16:31:05.347Z,21.09
2018-05-05T16:36:05.090Z,20.96
2018-05-05T16:40:59.922Z,20.93
2018-05-05T16:45:55.807Z,20.90
2018-05-05T16:50:51.749Z,20.97
2018-05-05T16:55:47.576Z,20.82
2018-05-05T17:00:48.122Z,20.90
2018-05-05T17:05:43.154Z,20.81
2018-05-05T17:10:39.557Z,20.84
2018-05-05T17:15:39.693Z,20.58
2018-05-05T17:20:34.630Z,20.52
2018-05-05T17:25:30.706Z,20.52
2018-05-05T17:30:26.447Z,20.37
2018-05-05T17:35:23.458Z,20.44
2018-05-05T17:40:20.033Z,20.43
2018-05-05T17:45:20.714Z,20.32
2018-05-05T17:50:15.479Z,20.34
2018-05-05T17:55:11.136Z,20.14
2018-05-05T18:00:06.990Z,19.95
2018-05-05T18:05:03.806Z,19.82
2018-05-05T18:10:00.353Z,19.71
2018-05-05T18:14:57.053Z,19.52
2018-05-05T18:19:57.218Z,19.48
2018-05-05T18:24:51.962Z,19.31
2018-05-05T18:29:52.504Z,19.12
2018-05-05T18:34:47.344Z,19.14
2018-05-05T18:39:43.864Z,18.99
2018-05-05T18:44:39.835Z,18.88
2018-05-05T18:49:35.656Z,18.68
2018-05-05T18:54:32.431Z,18.53
2018-05-05T18:59:32.723Z,18.40
2018-05-05T19:04:27.463Z,18.53
2018-05-05T19:09:28.162Z,18.28
2018-05-05T19:14:22.688Z,18.23
2018-05-05T19:19:18.553Z,18.07
2018-05-05T19:24:15.427Z,17.82
2018-05-05T19:29:10.792Z,17.64
2018-05-05T19:34:06.589Z,17.60
2018-05-05T19:39:02.784Z,17.34
2018-05-05T19:44:03.480Z,17.24
2018-05-05T19:48:58.243Z,17.01
2018-05-05T19:53:54.015Z,16.91
2018-05-05T19:58:49.951Z,16.94
2018-05-05T20:03:49.962Z,16.84
2018-05-05T20:08:44.689Z,16.69
2018-05-05T20:13:40.236Z,16.66
2018-05-05T20:18:36.358Z,16.60
2018-05-05T20:23:33.096Z,16.49
2018-05-05T20:28:33.514Z,16.32
2018-05-05T20:33:28.629Z,16.21
2018-05-05T20:38:24.655Z,16.15
2018-05-05T20:43:21.333Z,15.98
2018-05-05T20:48:16.802Z,16.00
2018-05-05T20:53:12.214Z,15.83
2018-05-05T20:58:13.400Z,15.72
2018-05-05T21:03:08.084Z,15.77
2018-05-05T21:08:08.607Z,15.76
2018-05-05T21:13:03.492Z,15.64
2018-05-05T21:17:59.251Z,15.55
2018-05-05T21:22:55.178Z,15.44
2018-05-05T21:27:50.863Z,15.37
2018-05-05T21:32:46.522Z,15.27
2018-05-05T21:37:42.368Z,15.21
2018-05-05T21:42:42.631Z,15.14
2018-05-05T21:47:37.414Z,15.06
2018-05-05T21:52:33.050Z,14.99
2018-05-05T21:57:32.586Z,15.00
2018-05-05T22:02:27.588Z,14.84
2018-05-05T22:07:27.417Z,14.82
2018-05-05T22:12:22.555Z,14.65
2018-05-05T22:17:18.323Z,14.63
2018-05-05T22:22:14.450Z,14.47
2018-05-05T22:27:12.053Z,14.62
2018-05-05T22:32:11.530Z,14.62
2018-05-05T22:37:06.671Z,14.55
2018-05-05T22:42:02.205Z,14.44
2018-05-05T22:46:58.469Z,14.48
2018-05-05T22:51:54.349Z,14.47
2018-05-05T22:56:50.316Z,14.36
2018-05-05T23:01:46.363Z,14.33
2018-05-05T23:06:47.400Z,14.17
2018-05-05T23:11:41.995Z,14.20
2018-05-05T23:16:37.623Z,14.14
2018-05-05T23:21:37.527Z,13.99
2018-05-05T23:26:36.287Z,14.07
2018-05-05T23:31:31.967Z,14.08
2018-05-05T23:36:27.455Z,14.07
2018-05-05T23:41:23.006Z,14.00
2018-05-05T23:46:18.744Z,13.86
2018-05-05T23:51:18.142Z,13.86
2018-05-05T23:56:17.107Z,13.86
